createdAt,value
2019-01-02T00:01:50.356Z,31.57
2019-01-02T00:04:20.020Z,27.47
2019-01-02T00:06:49.175Z,38.00
2019-01-02T00:09:18.373Z,45.93
2019-01-02T00:11:47.538Z,32.53
2019-01-02T00:14:16.733Z,28.10
2019-01-02T00:16:46.202Z,37.60
2019-01-02T00:19:16.164Z,48.20
2019-01-02T00:21:45.579Z,19.20
2019-01-02T00:24:14.754Z,21.40
2019-01-02T00:26:43.911Z,24.20
2019-01-02T00:29:13.104Z,23.80
2019-01-02T00:31:42.536Z,18.17
2019-01-02T00:34:11.724Z,33.20
2019-01-02T00:36:40.875Z,12.00
2019-01-02T00:39:10.450Z,9.70
2019-01-02T00:41:39.603Z,18.30
2019-01-02T00:44:08.980Z,18.60
2019-01-02T00:46:38.552Z,16.43
2019-01-02T00:49:08.064Z,18.60
2019-01-02T00:51:37.242Z,17.73
2019-01-02T00:54:08.892Z,12.93
2019-01-02T00:56:38.075Z,14.13
2019-01-02T00:59:07.662Z,11.43
2019-01-02T01:01:36.857Z,9.23
2019-01-02T01:04:06.436Z,14.93
2019-01-02T01:06:35.618Z,17.00
2019-01-02T01:09:06.910Z,16.77
2019-01-02T01:11:36.087Z,11.50
2019-01-02T01:14:05.643Z,10.50
2019-01-02T01:16:35.226Z,17.30
2019-01-02T01:19:04.887Z,12.63
2019-01-02T01:21:34.058Z,11.60
2019-01-02T01:24:03.768Z,7.77
2019-01-02T01:26:33.369Z,11.87
2019-01-02T01:29:02.671Z,9.23
2019-01-02T01:31:32.556Z,9.23
2019-01-02T01:34:01.722Z,9.63
2019-01-02T01:36:30.983Z,10.93
2019-01-02T01:39:00.142Z,15.00
2019-01-02T01:41:29.330Z,7.50
2019-01-02T01:43:58.902Z,5.60
2019-01-02T01:46:27.985Z,13.37
2019-01-02T01:48:57.163Z,5.63
2019-01-02T01:51:26.334Z,9.50
2019-01-02T01:53:55.491Z,7.70
2019-01-02T01:56:25.149Z,5.63
2019-01-02T01:58:54.251Z,10.80
2019-01-02T02:01:23.446Z,4.93
2019-01-02T02:03:54.312Z,6.73
2019-01-02T02:06:23.513Z,7.30
2019-01-02T02:08:52.687Z,13.43
2019-01-02T02:11:21.854Z,7.27
2019-01-02T02:13:51.062Z,6.13
2019-01-02T02:16:20.526Z,3.70
2019-01-02T02:18:49.923Z,8.93
2019-01-02T02:21:19.116Z,8.90
2019-01-02T02:23:48.668Z,17.27
2019-01-02T02:26:17.833Z,15.50
2019-01-02T02:28:47.572Z,5.67
2019-01-02T02:31:16.714Z,13.87
2019-01-02T02:33:46.295Z,12.83
2019-01-02T02:36:15.764Z,6.03
2019-01-02T02:38:45.219Z,8.47
2019-01-02T02:41:14.812Z,10.57
2019-01-02T02:43:45.108Z,6.70
2019-01-02T02:46:14.262Z,8.50
2019-01-02T02:48:43.434Z,12.80
2019-01-02T02:51:13.048Z,5.03
2019-01-02T02:53:42.714Z,14.70
2019-01-02T02:56:12.160Z,14.07
2019-01-02T02:58:41.948Z,20.47
2019-01-02T03:01:11.696Z,3.73
2019-01-02T03:03:41.250Z,8.27
2019-01-02T03:06:10.836Z,7.33
2019-01-02T03:08:39.981Z,12.50
2019-01-02T03:11:09.055Z,3.63
2019-01-02T03:13:38.721Z,4.17
2019-01-02T03:16:08.095Z,5.47
2019-01-02T03:18:37.653Z,5.40
2019-01-02T03:21:07.126Z,5.77
2019-01-02T03:23:36.267Z,6.83
2019-01-02T03:26:05.406Z,6.97
2019-01-02T03:28:35.092Z,3.17
2019-01-02T03:31:04.533Z,3.07
2019-01-02T03:33:34.082Z,7.47
2019-01-02T03:36:03.237Z,6.23
2019-01-02T03:38:32.399Z,7.03
2019-01-02T03:41:01.787Z,7.37
2019-01-02T03:43:31.349Z,9.10
2019-01-02T03:46:00.540Z,4.60
2019-01-02T03:48:32.463Z,3.93
2019-01-02T03:51:01.750Z,3.83
2019-01-02T03:53:31.325Z,4.97
2019-01-02T03:56:00.490Z,3.23
2019-01-02T03:58:29.646Z,4.37
2019-01-02T04:00:58.847Z,3.60
2019-01-02T04:03:28.016Z,13.00
2019-01-02T04:05:57.088Z,14.53
2019-01-02T04:08:26.815Z,8.13
2019-01-02T04:10:55.987Z,9.67
2019-01-02T04:13:25.129Z,19.03
2019-01-02T04:15:54.702Z,13.07
2019-01-02T04:18:23.852Z,8.60
2019-01-02T04:20:53.027Z,5.73
2019-01-02T04:23:22.181Z,4.77
2019-01-02T04:25:51.291Z,4.67
2019-01-02T04:28:20.436Z,7.50
2019-01-02T04:30:49.581Z,12.17
2019-01-02T04:33:18.752Z,24.07
2019-01-02T04:35:47.913Z,32.90
2019-01-02T04:38:17.059Z,24.53
2019-01-02T04:40:46.138Z,8.37
2019-01-02T04:43:15.288Z,10.83
2019-01-02T04:45:44.472Z,15.27
2019-01-02T04:48:13.685Z,14.77
2019-01-02T04:50:43.321Z,20.27
2019-01-02T04:53:12.472Z,12.53
2019-01-02T04:55:41.554Z,10.30
2019-01-02T04:58:10.636Z,23.83
2019-01-02T05:00:39.817Z,27.20
2019-01-02T05:03:08.968Z,7.67
2019-01-02T05:05:38.633Z,10.13
2019-01-02T05:08:07.818Z,10.77
2019-01-02T05:10:36.969Z,6.17
2019-01-02T05:13:06.114Z,10.73
2019-01-02T05:15:35.308Z,7.73
2019-01-02T05:18:04.745Z,8.57
2019-01-02T05:20:33.881Z,7.33
2019-01-02T05:23:03.064Z,16.07
2019-01-02T05:25:32.653Z,7.10
2019-01-02T05:28:01.833Z,14.43
2019-01-02T05:30:30.999Z,7.17
2019-01-02T05:33:00.152Z,10.50
2019-01-02T05:35:29.253Z,38.70
2019-01-02T05:37:58.323Z,28.33
2019-01-02T05:40:27.408Z,18.13
2019-01-02T05:42:56.587Z,16.97
2019-01-02T05:45:25.736Z,26.80
2019-01-02T05:47:54.891Z,38.10
2019-01-02T05:50:24.123Z,31.80
2019-01-02T05:52:53.280Z,10.10
2019-01-02T05:55:22.413Z,10.10
2019-01-02T05:57:51.685Z,10.27
2019-01-02T06:00:20.845Z,16.57
2019-01-02T06:02:50.015Z,35.43
2019-01-02T06:05:19.233Z,29.27
2019-01-02T06:07:48.362Z,27.07
2019-01-02T06:10:17.529Z,49.63
2019-01-02T06:12:46.758Z,37.37
2019-01-02T06:15:17.071Z,23.43
2019-01-02T06:17:46.266Z,25.93
2019-01-02T06:20:17.113Z,32.33
2019-01-02T06:22:46.289Z,43.47
2019-01-02T06:25:15.482Z,31.87
2019-01-02T06:27:44.644Z,78.10
2019-01-02T06:30:14.081Z,16.30
2019-01-02T06:32:43.273Z,16.80
2019-01-02T06:35:12.440Z,9.50
2019-01-02T06:37:41.600Z,16.50
2019-01-02T06:40:12.390Z,19.17
2019-01-02T06:42:41.536Z,31.83
2019-01-02T06:45:12.983Z,32.97
2019-01-02T06:47:42.045Z,34.77
2019-01-02T06:50:14.788Z,23.33
2019-01-02T06:52:43.982Z,17.33
2019-01-02T06:55:13.063Z,34.63
2019-01-02T06:57:42.216Z,57.63
2019-01-02T07:00:14.539Z,86.60
2019-01-02T07:02:43.741Z,23.30
2019-01-02T07:05:12.904Z,32.50
2019-01-02T07:07:42.165Z,31.97
2019-01-02T07:10:11.557Z,20.17
2019-01-02T07:12:40.734Z,31.53
2019-01-02T07:15:09.949Z,54.47
2019-01-02T07:17:39.056Z,64.40
2019-01-02T07:20:09.542Z,23.03
2019-01-02T07:22:38.722Z,21.37
2019-01-02T07:25:08.444Z,38.70
2019-01-02T07:27:38.431Z,136.97
2019-01-02T07:30:11.323Z,64.77
2019-01-02T07:32:40.497Z,33.60
2019-01-02T07:35:52.700Z,89.50
2019-01-02T07:38:53.166Z,43.27
2019-01-02T07:41:59.620Z,42.23
2019-01-02T07:45:16.559Z,49.00
2019-01-02T07:48:16.623Z,68.03
2019-01-02T07:51:22.574Z,50.63
2019-01-02T07:54:27.912Z,79.33
2019-01-02T07:57:44.129Z,41.83
2019-01-02T08:01:15.595Z,28.80
2019-01-02T08:04:16.035Z,41.07
2019-01-02T08:07:49.719Z,114.23
2019-01-02T08:11:05.209Z,121.70
2019-01-02T08:14:03.866Z,89.53
2019-01-02T08:17:05.678Z,113.80
2019-01-02T08:20:00.952Z,50.77
2019-01-02T08:23:07.409Z,64.63
2019-01-02T08:26:15.273Z,40.57
2019-01-02T08:29:40.957Z,119.13
2019-01-02T08:32:38.705Z,38.80
2019-01-02T08:35:59.428Z,63.93
2019-01-02T08:38:54.579Z,52.33
2019-01-02T08:41:59.594Z,33.47
2019-01-02T08:45:12.624Z,79.20
2019-01-02T08:48:02.672Z,134.13
2019-01-02T08:51:09.065Z,123.47
2019-01-02T08:54:11.207Z,96.30
2019-01-02T08:57:24.546Z,70.80
2019-01-02T09:00:11.306Z,84.60
2019-01-02T09:03:26.778Z,53.33
2019-01-02T09:06:48.237Z,43.93
2019-01-02T09:10:17.747Z,94.40
2019-01-02T09:13:13.731Z,97.07
2019-01-02T09:16:32.069Z,46.27
2019-01-02T09:19:33.890Z,29.80
2019-01-02T09:22:36.088Z,34.73
2019-01-02T09:25:49.130Z,99.90
2019-01-02T09:28:50.471Z,60.33
2019-01-02T09:31:54.722Z,51.53
2019-01-02T09:35:06.639Z,42.00
2019-01-02T09:38:12.527Z,57.03
2019-01-02T09:40:50.166Z,38.07
2019-01-02T09:43:57.769Z,27.47
2019-01-02T09:47:07.035Z,38.40
2019-01-02T09:50:32.782Z,34.60
2019-01-02T09:53:44.759Z,54.43
2019-01-02T09:57:07.504Z,23.23
2019-01-02T10:00:19.846Z,44.63
2019-01-02T10:03:24.674Z,117.73
2019-01-02T10:06:33.861Z,412.10
2019-01-02T10:09:50.271Z,160.93
2019-01-02T10:12:46.354Z,102.57
2019-01-02T10:15:59.480Z,134.70
2019-01-02T10:19:02.632Z,176.73
2019-01-02T10:22:22.210Z,176.30
2019-01-02T10:25:36.662Z,154.97
2019-01-02T10:28:37.728Z,60.60
2019-01-02T10:31:50.969Z,93.53
2019-01-02T10:35:03.533Z,143.33
2019-01-02T10:38:28.453Z,191.30
2019-01-02T10:41:27.734Z,55.63
2019-01-02T10:44:22.045Z,131.07
2019-01-02T10:47:33.696Z,62.70
2019-01-02T10:50:34.963Z,72.17
2019-01-02T10:54:00.252Z,118.67
2019-01-02T10:57:07.836Z,115.23
2019-01-02T11:00:22.631Z,74.87
2019-01-02T11:03:18.424Z,74.13
2019-01-02T11:06:33.948Z,41.40
2019-01-02T11:09:52.287Z,55.57
2019-01-02T11:12:53.943Z,48.07
2019-01-02T11:16:01.338Z,43.40
2019-01-02T11:19:12.499Z,51.63
2019-01-02T11:22:34.991Z,34.97
2019-01-02T11:25:56.258Z,33.23
2019-01-02T11:29:05.523Z,34.87
2019-01-02T11:31:58.763Z,27.50
2019-01-02T11:35:04.291Z,31.60
2019-01-02T11:38:12.380Z,50.07
2019-01-02T11:41:12.145Z,33.53
2019-01-02T11:44:28.824Z,40.20
2019-01-02T11:46:58.042Z,21.87
2019-01-02T11:49:28.313Z,18.27
2019-01-02T11:52:00.148Z,29.63
2019-01-02T11:54:29.360Z,36.83
2019-01-02T11:56:58.843Z,19.40
2019-01-02T11:59:28.133Z,22.40
2019-01-02T12:01:57.312Z,30.20
2019-01-02T12:04:26.493Z,23.80
2019-01-02T12:06:55.693Z,25.37
2019-01-02T12:09:24.922Z,22.67
2019-01-02T12:11:54.098Z,28.60
2019-01-02T12:14:23.279Z,20.53
2019-01-02T12:16:52.757Z,42.50
2019-01-02T12:19:22.409Z,26.37
2019-01-02T12:21:51.591Z,13.90
2019-01-02T12:24:20.806Z,15.20
2019-01-02T12:26:51.139Z,12.57
2019-01-02T12:29:20.327Z,16.70
2019-01-02T12:31:49.536Z,21.03
2019-01-02T12:34:18.728Z,19.40
2019-01-02T12:36:49.213Z,25.07
2019-01-02T12:39:18.416Z,13.50
2019-01-02T12:41:47.719Z,15.53
2019-01-02T12:44:20.957Z,16.17
2019-01-02T12:46:50.543Z,21.67
2019-01-02T12:49:19.725Z,24.60
2019-01-02T12:51:48.982Z,71.17
2019-01-02T12:54:18.210Z,56.37
2019-01-02T12:56:53.722Z,75.87
2019-01-02T12:59:29.296Z,133.03
2019-01-02T13:02:55.227Z,85.80
2019-01-02T13:06:12.658Z,32.90
2019-01-02T13:09:26.151Z,14.37
2019-01-02T13:12:23.641Z,18.57
2019-01-02T13:15:18.040Z,15.10
2019-01-02T13:18:15.330Z,17.03
2019-01-02T13:21:07.723Z,21.73
2019-01-02T13:24:17.323Z,44.47
2019-01-02T13:26:56.497Z,18.57
2019-01-02T13:29:51.360Z,46.70
2019-01-02T13:32:45.705Z,20.03
2019-01-02T13:35:59.572Z,16.23
2019-01-02T13:38:49.461Z,19.27
2019-01-02T13:42:02.004Z,23.00
2019-01-02T13:45:24.563Z,43.97
2019-01-02T13:48:30.752Z,31.27
2019-01-02T13:51:10.507Z,45.27
2019-01-02T13:53:39.733Z,26.83
2019-01-02T13:56:11.804Z,25.03
2019-01-02T13:58:41.062Z,60.63
2019-01-02T14:01:10.319Z,58.13
2019-01-02T14:03:39.931Z,23.70
2019-01-02T14:06:09.255Z,23.80
2019-01-02T14:08:38.474Z,18.07
2019-01-02T14:11:07.693Z,16.53
2019-01-02T14:13:36.879Z,48.10
2019-01-02T14:16:06.797Z,22.10
2019-01-02T14:18:37.117Z,21.30
2019-01-02T14:21:06.292Z,25.43
2019-01-02T14:23:35.460Z,110.53
2019-01-02T14:26:04.737Z,80.43
2019-01-02T14:28:36.640Z,47.03
2019-01-02T14:31:06.532Z,157.97
2019-01-02T14:33:35.807Z,102.17
2019-01-02T14:36:05.010Z,77.53
2019-01-02T14:38:34.245Z,152.17
2019-01-02T14:41:03.438Z,167.10
2019-01-02T14:43:32.727Z,41.87
2019-01-02T14:46:01.923Z,57.03
2019-01-02T14:48:31.095Z,48.43
2019-01-02T14:51:00.313Z,38.07
2019-01-02T14:53:29.399Z,19.37
2019-01-02T14:55:58.656Z,60.13
2019-01-02T14:58:29.311Z,57.77
2019-01-02T15:00:58.484Z,62.57
2019-01-02T15:03:27.752Z,85.83
2019-01-02T15:05:57.025Z,108.37
2019-01-02T15:08:26.371Z,66.57
2019-01-02T15:10:55.838Z,67.83
2019-01-02T15:13:25.023Z,92.27
2019-01-02T15:15:54.265Z,35.30
2019-01-02T15:18:23.870Z,56.83
2019-01-02T15:20:54.657Z,67.93
2019-01-02T15:23:23.767Z,56.53
2019-01-02T15:25:53.297Z,82.97
2019-01-02T15:28:22.542Z,18.23
2019-01-02T15:30:51.724Z,62.27
2019-01-02T15:33:21.017Z,57.43
2019-01-02T15:35:52.405Z,30.17
2019-01-02T15:38:21.562Z,22.90
2019-01-02T15:40:50.861Z,57.50
2019-01-02T15:43:20.041Z,41.33
2019-01-02T15:45:49.284Z,54.40
2019-01-02T15:48:18.549Z,82.77
2019-01-02T15:50:47.986Z,53.93
2019-01-02T15:53:17.174Z,45.50
2019-01-02T15:55:46.397Z,69.20
2019-01-02T15:58:17.662Z,62.30
2019-01-02T16:00:46.938Z,53.30
2019-01-02T16:03:16.213Z,51.73
2019-01-02T16:05:45.420Z,43.63
2019-01-02T16:08:14.630Z,27.97
2019-01-02T16:10:45.229Z,25.90
2019-01-02T16:13:14.421Z,25.10
2019-01-02T16:15:43.617Z,18.70
2019-01-02T16:18:12.831Z,21.80
2019-01-02T16:20:42.087Z,34.30
2019-01-02T16:23:11.288Z,29.30
2019-01-02T16:25:40.482Z,37.47
2019-01-02T16:28:09.720Z,30.83
2019-01-02T16:30:38.977Z,35.30
2019-01-02T16:33:09.404Z,37.87
2019-01-02T16:35:38.944Z,39.93
2019-01-02T16:38:08.199Z,28.17
2019-01-02T16:40:38.533Z,46.87
2019-01-02T16:43:07.757Z,39.17
2019-01-02T16:45:36.944Z,26.03
2019-01-02T16:48:06.192Z,52.00
2019-01-02T16:50:35.457Z,40.50
2019-01-02T16:53:04.861Z,46.53
2019-01-02T16:55:34.070Z,43.60
2019-01-02T16:58:03.351Z,45.30
2019-01-02T17:00:32.543Z,109.63
2019-01-02T17:03:02.709Z,83.50
2019-01-02T17:05:31.919Z,44.23
2019-01-02T17:08:01.150Z,46.67
2019-01-02T17:10:31.357Z,70.37
2019-01-02T17:13:00.628Z,33.00
2019-01-02T17:15:29.834Z,78.17
2019-01-02T17:17:59.370Z,45.67
2019-01-02T17:20:28.559Z,77.70
2019-01-02T17:22:58.557Z,68.13
2019-01-02T17:25:27.752Z,104.20
2019-01-02T17:27:56.942Z,94.27
2019-01-02T17:30:26.343Z,97.40
2019-01-02T17:32:56.518Z,104.53
2019-01-02T17:35:27.247Z,165.80
2019-01-02T17:37:56.986Z,252.20
2019-01-02T17:40:26.303Z,221.43
2019-01-02T17:42:55.846Z,643.30
2019-01-02T17:45:25.004Z,260.67
2019-01-02T17:47:54.958Z,222.80
2019-01-02T17:50:24.195Z,100.47
2019-01-02T17:52:53.462Z,165.50
2019-01-02T17:55:23.020Z,219.63
2019-01-02T17:57:52.255Z,312.13
2019-01-02T18:00:21.440Z,112.00
2019-01-02T18:02:50.657Z,53.23
2019-01-02T18:05:20.426Z,127.33
2019-01-02T18:07:49.598Z,138.90
2019-01-02T18:10:18.998Z,177.00
2019-01-02T18:12:48.161Z,216.23
2019-01-02T18:15:19.370Z,86.67
2019-01-02T18:17:48.562Z,41.10
2019-01-02T18:20:17.820Z,76.30
2019-01-02T18:22:47.569Z,78.93
2019-01-02T18:25:16.781Z,47.87
2019-01-02T18:27:46.582Z,81.00
2019-01-02T18:30:15.790Z,82.30
2019-01-02T18:32:47.413Z,46.27
2019-01-02T18:35:19.439Z,35.53
2019-01-02T18:37:48.667Z,72.27
2019-01-02T18:40:27.018Z,27.60
2019-01-02T18:42:56.749Z,49.47
2019-01-02T18:45:26.331Z,25.50
2019-01-02T18:47:57.493Z,26.70
2019-01-02T18:50:26.948Z,51.77
2019-01-02T18:52:57.120Z,25.60
2019-01-02T18:55:26.320Z,76.97
2019-01-02T18:57:55.627Z,54.93
2019-01-02T19:00:24.838Z,51.17
2019-01-02T19:02:54.432Z,45.03
2019-01-02T19:05:23.667Z,98.17
2019-01-02T19:07:53.235Z,45.27
2019-01-02T19:10:23.416Z,55.37
2019-01-02T19:12:52.698Z,75.40
2019-01-02T19:15:21.949Z,54.97
2019-01-02T19:17:51.167Z,74.00
2019-01-02T19:20:20.390Z,47.80
2019-01-02T19:22:50.539Z,78.97
2019-01-02T19:25:19.738Z,39.83
2019-01-02T19:27:48.911Z,39.70
2019-01-02T19:30:20.431Z,69.23
2019-01-02T19:32:49.614Z,23.40
2019-01-02T19:35:18.847Z,21.87
2019-01-02T19:37:48.412Z,18.50
2019-01-02T19:40:17.599Z,32.47
2019-01-02T19:42:46.985Z,42.80
2019-01-02T19:45:16.252Z,35.97
2019-01-02T19:47:47.507Z,25.43
2019-01-02T19:50:16.703Z,32.10
2019-01-02T19:52:45.914Z,181.47
2019-01-02T19:55:15.098Z,62.03
2019-01-02T19:57:44.406Z,46.93
2019-01-02T20:00:13.824Z,48.50
2019-01-02T20:02:43.026Z,58.90
2019-01-02T20:05:12.247Z,37.03
2019-01-02T20:07:41.475Z,63.50
2019-01-02T20:10:11.550Z,102.93
2019-01-02T20:12:40.887Z,22.80
2019-01-02T20:15:12.683Z,63.43
2019-01-02T20:17:41.957Z,63.80
2019-01-02T20:20:12.984Z,31.93
2019-01-02T20:22:44.405Z,66.53
2019-01-02T20:25:13.620Z,46.67
2019-01-02T20:27:44.796Z,51.70
2019-01-02T20:30:14.013Z,60.80
2019-01-02T20:32:43.214Z,45.17
2019-01-02T20:35:14.005Z,30.60
2019-01-02T20:37:43.249Z,56.00
2019-01-02T20:40:12.580Z,260.03
2019-01-02T20:42:42.514Z,423.40
2019-01-02T20:45:11.802Z,408.30
2019-01-02T20:48:00.227Z,768.17
2019-01-02T20:50:29.491Z,67.67
2019-01-02T20:52:58.674Z,168.50
2019-01-02T20:55:27.868Z,64.83
2019-01-02T20:57:57.439Z,58.40
2019-01-02T21:00:26.740Z,104.03
2019-01-02T21:02:57.084Z,33.93
2019-01-02T21:05:26.633Z,57.03
2019-01-02T21:07:55.867Z,48.07
2019-01-02T21:10:25.144Z,248.00
2019-01-02T21:12:54.738Z,113.37
2019-01-02T21:15:24.003Z,196.47
2019-01-02T21:17:55.067Z,127.17
2019-01-02T21:20:24.437Z,52.67
2019-01-02T21:22:53.637Z,89.23
2019-01-02T21:25:22.900Z,54.70
2019-01-02T21:27:52.099Z,27.23
2019-01-02T21:30:21.999Z,35.57
2019-01-02T21:32:51.266Z,45.10
2019-01-02T21:35:21.155Z,50.40
2019-01-02T21:37:50.414Z,14.80
2019-01-02T21:40:19.878Z,21.43
2019-01-02T21:42:49.605Z,50.87
2019-01-02T21:45:18.892Z,24.17
2019-01-02T21:47:48.241Z,47.43
2019-01-02T21:50:17.629Z,26.07
2019-01-02T21:52:46.836Z,48.07
2019-01-02T21:55:16.114Z,14.37
2019-01-02T21:57:45.355Z,59.53
2019-01-02T22:00:15.292Z,25.93
2019-01-02T22:02:44.483Z,36.77
2019-01-02T22:05:13.723Z,19.23
2019-01-02T22:07:43.309Z,24.50
2019-01-02T22:10:12.638Z,29.17
2019-01-02T22:12:44.069Z,27.23
2019-01-02T22:15:13.591Z,18.27
2019-01-02T22:17:42.755Z,39.23
2019-01-02T22:20:11.973Z,40.93
2019-01-02T22:22:41.228Z,27.10
2019-01-02T22:25:10.872Z,37.10
2019-01-02T22:27:41.966Z,18.47
2019-01-02T22:30:11.444Z,34.00
2019-01-02T22:32:41.213Z,20.80
2019-01-02T22:35:13.786Z,15.47
2019-01-02T22:37:43.005Z,20.03
2019-01-02T22:40:12.334Z,22.33
2019-01-02T22:42:41.598Z,33.50
2019-01-02T22:45:10.934Z,18.53
2019-01-02T22:47:40.157Z,28.53
2019-01-02T22:50:10.856Z,22.33
2019-01-02T22:52:40.088Z,32.53
2019-01-02T22:55:11.290Z,20.57
2019-01-02T22:57:40.490Z,22.83
2019-01-02T23:00:30.039Z,23.80
2019-01-02T23:03:07.708Z,30.93
2019-01-02T23:05:53.992Z,18.43
2019-01-02T23:08:39.511Z,23.40
2019-01-02T23:11:42.723Z,16.40
2019-01-02T23:14:29.721Z,27.20
2019-01-02T23:17:23.997Z,18.77
2019-01-02T23:20:12.131Z,11.83
2019-01-02T23:22:59.216Z,26.93
2019-01-02T23:25:53.342Z,9.40
2019-01-02T23:28:44.755Z,20.37
2019-01-02T23:31:36.240Z,17.90
2019-01-02T23:34:27.296Z,25.10
2019-01-02T23:37:18.351Z,20.17
2019-01-02T23:40:12.444Z,13.87
2019-01-02T23:43:00.607Z,21.90
2019-01-02T23:45:47.260Z,17.03
2019-01-02T23:48:35.418Z,16.13
2019-01-02T23:51:22.389Z,38.87
2019-01-02T23:54:10.532Z,24.53
2019-01-02T23:56:58.648Z,24.57
2019-01-02T23:59:52.893Z,17.17
